METAR és
SPECI
METAR LHBP 031700Z 08004KT CAVOK 27/18 Q1017 NOSIG=
METAR LHBP 031630Z VRB03KT CAVOK 28/19 Q1017 NOSIG=
METAR LHBP 031600Z 06005KT 040V100 9999 FEW044 28/19 Q1017 NOSIG=
METAR LHBP 031530Z 09004KT 040V130 9999 FEW043 28/18 Q1018 NOSIG=
METAR LHBP 031500Z VRB03KT 9999 FEW045 28/19 Q1018 NOSIG=
METAR LHBP 031430Z 11005KT 9999 SCT041 28/19 Q1018 NOSIG=
TAF
TAF LHBP 031100Z 0312/0412 08008KT 9999 BKN040 TEMPO 0313/0320 VRB24G36KT 5000 SHRA TSRA SCT030CB BKN040 BECMG 0316/0318 VRB03KT CAVOK PROB30 TEMPO 0320/0405 VRB12G24KT -SHRA -TSRA SCT035CB BKN060 BECMG 0409/0411 16008KT SCT045=
GAMET
FAHU41 LHBM 031100
LHCC GAMET VALID 031200/031800 LHBP-
BUDAPEST FIR BLW FL100
SECN 1
SFC VIS: 3000-5000 M TSRA
SIGWX: ISOL TS N OF N4700 AND E OF E01845
SIG CLD: ISOL SCT/BKN TCU CB 2500-4000/XXX FT AGL
SIGMETS APPLICABLE: NIL=
OMSZ: 2015. augusztus 3. 13:08 (11:08  UTC)
[FAHU41]
AIRMET
Nincs érvényes távirat! 
WAHU41 LHBM 250615
LHCC AIRMET 01 VALID 250615/251000 LHBP-
LHCC BUDAPEST FIR ISOL TS OBS AT 0615Z N OF N4625 AND W OF
E01717 TOP FL280 MOV NNE WKN=
OMSZ: 2015. július 25. 08:24 (06:24  UTC)
[WAHU41]
SIGMET
Nincs érvényes távirat! 
WSHU31 LHBM 030645
LHCC SIGMET 02 VALID 030645/030845 LHBP-
LHCC BUDAPEST FIR EMBD TS OBS E OF E02000 AND W OF E02115
TOP FL350 MOV N WKN=
OMSZ: 2015. augusztus 3. 08:44 (06:44  UTC)
[WSHU31]
SIGMET
Vulkáni hamufelhő
Nincs érvényes távirat! 
WVHU31 LHBM 271515 CCA
LHCC SIGMET 03 VALID 271515/271800 LHBP-
LHCC BUDAPEST FIR EXERCISE VOLCEX12/01
CNL VA SIGMET 02 271200/271800
EXERCISE EXERCISE EXERCISE VOLCEX12/01=
OMSZ: 2015. április 14. 15:15 (13:15  UTC)
[WVHU31]